עמוד ראשי
METAR-TAF:

METAR-TAF

שדות תעופה :

אי הפסחא, צ'ילה

קו רוחב: 27-09S, קו אורך: 109-25W, גובה: 51מטר

תצפית מזג אוויר נוכחית

הדו"ח נערך לפני 27דקות, בשעה 09:00 UTC
רוח 6קשר מכיוון מזרח/דרום-מזרח
טמפרטורת 21 צלסיוס
לחות 88%
לחץ 1020 hPa
ראות 10 קילומטר או יותר
מעט עננים בגובה 4000רגל
עננים בינוניים בגובה 6000רגל

METAR: SCIP 290900Z 11006KT 9999 FEW040 BKN060 21/19 Q1020 NOSIG

זמן: 04:27 (09:27 UTC)

תחזית

הדו"ח נערך לפני 4 שעות ו 52דקות, בשעה 04:35 UTC
תחזית בתוקף מ 29 ב 06 UTC עד 01 ב 06 UTC
רוח 4קשר מכיוון מזרח
ראות 10 קילומטר או יותר
מעט עננים בגובה 2000רגל
זמנית מ -
29 ב 06 UTC עד 29 ב 12 UTC
ראות: 4000מטר
עננים פזורים בגובה 1500רגל
עננים בינוניים בגובה 2500רגל
ממטרי גשם,

TAF: SCIP 290435Z 2906/0106 09004KT 9999 FEW020 TX27/2920Z TN19/2910Z TEMPO 2906/2912 4000 SHRA SCT015 BKN025

תצפיות ותחזיות מזג אוויר לגבי יותר מ- 4,000 שדות תעופה ברחבי העולם. דוחות METAR ו- TAF.

התחנות הזמינות מסומנות בנקודות צהובות ואדומות על גבי המפה.

העבר את העכבר לנקודה הצבעונית על מנת לראות את שם התחנה.

לאחר מכן, לחץ כדי לראות את תוכן ואת תחזיות מזג האוויר.

כדי לשנות את המפה: לחץ על הכפתורים הירוקים עם הפלוס השחור כדי להתקרב; על הכפתור הירוק עם המקף כדי להתרחק; או בחיצים הירוקים למפות סמוכות.


METAR-TAF: